createdAt,value
2022-11-29T00:01:17.624Z,8.19
2022-11-29T00:03:45.503Z,8.18
2022-11-29T00:06:15.177Z,8.15
2022-11-29T00:08:43.133Z,8.17
2022-11-29T00:11:40.485Z,8.12
2022-11-29T00:14:08.816Z,8.14
2022-11-29T00:16:36.769Z,8.13
2022-11-29T00:19:04.533Z,8.13
2022-11-29T00:21:32.235Z,8.13
2022-11-29T00:24:00.030Z,8.13
2022-11-29T00:26:28.007Z,8.13
2022-11-29T00:28:55.881Z,8.13
2022-11-29T00:31:33.038Z,8.14
2022-11-29T00:34:02.070Z,8.12
2022-11-29T00:36:29.858Z,8.15
2022-11-29T00:38:57.631Z,8.14
2022-11-29T00:41:25.378Z,8.14
2022-11-29T00:43:53.160Z,8.15
2022-11-29T00:46:21.001Z,8.14
2022-11-29T00:48:48.796Z,8.13
2022-11-29T00:51:16.583Z,8.12
2022-11-29T00:53:44.295Z,8.10
2022-11-29T00:56:12.220Z,8.10
2022-11-29T00:58:44.580Z,8.10
2022-11-29T01:01:12.872Z,8.10
2022-11-29T01:03:40.666Z,8.08
2022-11-29T01:06:13.068Z,8.06
2022-11-29T01:08:40.882Z,8.08
2022-11-29T01:11:28.033Z,8.07
2022-11-29T01:13:58.194Z,8.04
2022-11-29T01:16:26.057Z,8.05
2022-11-29T01:18:53.900Z,8.04
2022-11-29T01:21:23.212Z,8.04
2022-11-29T01:23:51.547Z,8.02
2022-11-29T01:26:27.205Z,7.99
2022-11-29T01:28:55.808Z,7.98
2022-11-29T01:31:25.999Z,7.97
2022-11-29T01:33:55.373Z,7.95
2022-11-29T01:36:23.138Z,7.95
2022-11-29T01:38:50.923Z,7.97
2022-11-29T01:41:29.646Z,7.97
2022-11-29T01:44:13.966Z,7.97
2022-11-29T01:46:43.354Z,7.95
2022-11-29T01:49:13.680Z,7.96
2022-11-29T01:51:42.972Z,7.94
2022-11-29T01:54:11.036Z,7.93
2022-11-29T01:56:38.837Z,7.92
2022-11-29T01:59:09.802Z,7.89
2022-11-29T02:01:37.582Z,7.87
2022-11-29T02:04:05.626Z,7.86
2022-11-29T02:06:33.432Z,7.82
2022-11-29T02:09:01.198Z,7.79
2022-11-29T02:12:16.528Z,7.78
2022-11-29T02:15:25.898Z,7.75
2022-11-29T02:18:03.646Z,7.75
2022-11-29T02:20:55.526Z,7.74
2022-11-29T02:23:32.370Z,7.73
2022-11-29T02:26:02.800Z,7.71
2022-11-29T02:28:47.371Z,7.70
2022-11-29T02:31:45.412Z,7.69
2022-11-29T02:34:47.370Z,7.67
2022-11-29T02:37:30.051Z,7.68
2022-11-29T02:40:21.963Z,7.65
2022-11-29T02:43:17.386Z,7.64
2022-11-29T02:46:08.894Z,7.66
2022-11-29T02:49:05.699Z,7.64
2022-11-29T02:51:43.879Z,7.65
2022-11-29T02:54:23.606Z,7.68
2022-11-29T02:57:08.974Z,7.68
2022-11-29T02:59:53.783Z,7.67
2022-11-29T03:02:58.124Z,7.68
2022-11-29T03:05:51.958Z,7.69
2022-11-29T03:08:26.880Z,7.71
2022-11-29T03:11:21.107Z,7.74
2022-11-29T03:14:25.935Z,7.74
2022-11-29T03:17:15.272Z,7.75
2022-11-29T03:19:43.031Z,7.75
2022-11-29T03:22:15.188Z,7.76
2022-11-29T03:24:52.252Z,7.75
2022-11-29T03:27:27.720Z,7.74
2022-11-29T03:29:59.140Z,7.76
2022-11-29T03:32:42.196Z,7.73
2022-11-29T03:35:34.857Z,7.69
2022-11-29T03:38:02.425Z,7.67
2022-11-29T03:40:56.403Z,7.64
2022-11-29T03:44:02.518Z,7.59
2022-11-29T03:46:59.320Z,7.57
2022-11-29T03:49:30.620Z,7.53
2022-11-29T03:52:39.408Z,7.48
2022-11-29T03:55:10.311Z,7.49
2022-11-29T03:57:51.006Z,7.49
2022-11-29T04:00:18.976Z,7.45
2022-11-29T04:02:59.162Z,7.39
2022-11-29T04:05:30.578Z,7.42
2022-11-29T04:07:58.156Z,7.39
2022-11-29T04:10:50.613Z,7.38
2022-11-29T04:13:42.646Z,7.37
2022-11-29T04:16:19.465Z,7.36
2022-11-29T04:19:10.065Z,7.35
2022-11-29T04:22:22.193Z,7.32
2022-11-29T04:25:28.097Z,7.31
2022-11-29T04:28:07.739Z,7.28
2022-11-29T04:30:46.963Z,7.27
2022-11-29T04:33:39.571Z,7.24
2022-11-29T04:36:58.404Z,7.23
2022-11-29T04:39:46.040Z,7.18
2022-11-29T04:42:45.375Z,7.14
2022-11-29T04:45:37.003Z,7.11
2022-11-29T04:48:25.911Z,7.08
2022-11-29T04:51:08.622Z,7.05
2022-11-29T04:54:01.512Z,7.04
2022-11-29T04:56:53.061Z,7.00
2022-11-29T04:59:27.816Z,6.96
2022-11-29T05:02:17.377Z,6.94
2022-11-29T05:04:54.536Z,6.91
2022-11-29T05:07:28.030Z,6.88
2022-11-29T05:10:16.940Z,6.86
2022-11-29T05:13:01.197Z,6.85
2022-11-29T05:15:46.684Z,6.81
2022-11-29T05:18:43.854Z,6.81
2022-11-29T05:21:20.174Z,6.79
2022-11-29T05:24:18.907Z,6.79
2022-11-29T05:26:51.197Z,6.82
2022-11-29T05:29:37.474Z,6.83
2022-11-29T05:32:35.176Z,6.83
2022-11-29T05:35:38.391Z,6.84
2022-11-29T05:38:33.260Z,6.85
2022-11-29T05:41:07.155Z,6.86
2022-11-29T05:44:00.642Z,6.88
2022-11-29T05:46:52.291Z,6.89
2022-11-29T05:49:54.671Z,6.90
2022-11-29T05:52:23.729Z,6.90
2022-11-29T05:55:00.826Z,6.90
2022-11-29T05:57:40.577Z,6.87
2022-11-29T06:00:08.938Z,6.88
2022-11-29T06:02:48.490Z,6.89
2022-11-29T06:05:37.438Z,6.86
2022-11-29T06:08:24.148Z,6.87
2022-11-29T06:11:03.280Z,6.91
2022-11-29T06:13:40.794Z,6.93
2022-11-29T06:16:46.124Z,6.95
2022-11-29T06:19:27.369Z,6.98
2022-11-29T06:22:26.489Z,6.96
2022-11-29T06:24:54.600Z,6.97
2022-11-29T06:27:33.425Z,6.99
2022-11-29T06:30:10.450Z,6.99
2022-11-29T06:33:04.098Z,7.00
2022-11-29T06:35:47.909Z,7.01
2022-11-29T06:38:22.043Z,7.04
2022-11-29T06:40:50.920Z,7.04
2022-11-29T06:43:19.045Z,7.06
2022-11-29T06:45:52.483Z,7.05
2022-11-29T06:48:25.527Z,7.09
2022-11-29T06:51:08.916Z,7.07
2022-11-29T06:53:55.451Z,7.06
2022-11-29T06:56:42.966Z,7.09
2022-11-29T06:59:17.028Z,7.11
2022-11-29T07:01:59.942Z,7.13
2022-11-29T07:04:33.856Z,7.13
2022-11-29T07:07:01.922Z,7.14
2022-11-29T07:09:33.184Z,7.14
2022-11-29T07:12:01.152Z,7.13
2022-11-29T07:14:29.193Z,7.17
2022-11-29T07:17:05.591Z,7.54
2022-11-29T07:19:55.607Z,7.67
2022-11-29T07:22:39.820Z,7.66
2022-11-29T07:25:29.462Z,7.64
2022-11-29T07:28:23.191Z,7.76
2022-11-29T07:31:26.412Z,7.85
2022-11-29T07:33:57.606Z,7.73
2022-11-29T07:36:58.098Z,7.64
2022-11-29T07:40:05.313Z,7.61
2022-11-29T07:42:43.260Z,7.58
2022-11-29T07:45:30.014Z,7.58
2022-11-29T07:47:57.792Z,7.59
2022-11-29T07:50:26.363Z,7.61
2022-11-29T07:52:54.870Z,7.55
2022-11-29T07:55:23.695Z,7.58
2022-11-29T07:57:51.774Z,7.56
2022-11-29T08:00:20.124Z,7.54
2022-11-29T08:02:50.384Z,7.55
2022-11-29T08:05:18.425Z,7.56
2022-11-29T08:07:47.502Z,7.56
2022-11-29T08:10:16.765Z,7.58
2022-11-29T08:12:45.612Z,7.60
2022-11-29T08:15:13.387Z,7.62
2022-11-29T08:17:41.243Z,7.64
2022-11-29T08:20:09.321Z,7.59
2022-11-29T08:22:37.123Z,7.60
2022-11-29T08:25:05.312Z,7.57
2022-11-29T08:27:33.157Z,7.52
2022-11-29T08:30:00.949Z,7.51
2022-11-29T08:32:28.695Z,7.48
2022-11-29T08:34:56.494Z,7.53
2022-11-29T08:37:24.231Z,7.56
2022-11-29T08:39:51.962Z,7.57
2022-11-29T08:42:19.754Z,7.59
2022-11-29T08:44:48.797Z,7.60
2022-11-29T08:47:35.432Z,7.66
2022-11-29T08:50:16.903Z,7.69
2022-11-29T08:53:05.104Z,7.69
2022-11-29T08:55:34.775Z,7.69
2022-11-29T08:58:05.337Z,7.73
2022-11-29T09:00:33.752Z,7.76
2022-11-29T09:03:23.128Z,7.81
2022-11-29T09:05:51.011Z,7.83
2022-11-29T09:08:18.795Z,7.86
2022-11-29T09:10:46.650Z,7.84
2022-11-29T09:13:14.500Z,7.88
2022-11-29T09:15:45.714Z,7.92
2022-11-29T09:18:13.618Z,7.91
2022-11-29T09:20:43.821Z,7.96
2022-11-29T09:23:12.046Z,8.00
2022-11-29T09:25:39.764Z,8.00
2022-11-29T09:28:08.046Z,8.02
2022-11-29T09:30:37.642Z,8.05
2022-11-29T09:33:06.060Z,8.07
2022-11-29T09:35:34.439Z,8.12
2022-11-29T09:38:02.165Z,8.15
2022-11-29T09:40:38.224Z,8.18
2022-11-29T09:43:28.193Z,8.22
2022-11-29T09:46:19.995Z,8.22
2022-11-29T09:49:30.702Z,8.20
2022-11-29T09:52:26.077Z,8.22
2022-11-29T09:54:58.313Z,8.28
2022-11-29T09:57:28.135Z,8.36
2022-11-29T09:59:58.626Z,8.40
2022-11-29T10:02:46.404Z,8.42
2022-11-29T10:05:27.700Z,8.46
2022-11-29T10:08:08.670Z,8.52
2022-11-29T10:10:44.329Z,8.56
2022-11-29T10:13:31.225Z,8.59
2022-11-29T10:16:28.502Z,8.65
2022-11-29T10:19:02.197Z,8.67
2022-11-29T10:21:32.915Z,8.64
2022-11-29T10:24:02.764Z,8.66
2022-11-29T10:26:34.949Z,8.66
2022-11-29T10:29:03.201Z,8.66
2022-11-29T10:31:37.271Z,8.61
2022-11-29T10:34:15.078Z,8.61
2022-11-29T10:36:53.689Z,8.65
2022-11-29T10:39:32.180Z,8.65
2022-11-29T10:42:02.644Z,8.67
2022-11-29T10:44:30.551Z,8.68
2022-11-29T10:46:58.239Z,8.69
2022-11-29T10:49:28.277Z,8.70
2022-11-29T10:51:56.049Z,8.73
2022-11-29T10:54:36.797Z,8.71
2022-11-29T10:57:07.253Z,8.72
2022-11-29T10:59:34.988Z,8.72
2022-11-29T11:02:02.756Z,8.71
2022-11-29T11:04:31.566Z,8.67
2022-11-29T11:07:02.342Z,8.64
2022-11-29T11:09:44.180Z,8.64
2022-11-29T11:12:18.466Z,8.65
2022-11-29T11:14:46.902Z,8.68
2022-11-29T11:17:27.263Z,8.62
2022-11-29T11:20:05.571Z,8.59
2022-11-29T11:22:34.019Z,8.57
2022-11-29T11:25:04.645Z,8.52
2022-11-29T11:27:34.322Z,8.54
2022-11-29T11:30:02.538Z,8.59
2022-11-29T11:32:30.348Z,8.65
2022-11-29T11:35:02.383Z,8.65
2022-11-29T11:37:31.660Z,8.66
2022-11-29T11:40:01.651Z,8.67
2022-11-29T11:42:39.644Z,8.71
2022-11-29T11:45:12.966Z,8.71
2022-11-29T11:47:50.865Z,8.67
2022-11-29T11:50:29.924Z,8.72
2022-11-29T11:53:08.646Z,8.73
2022-11-29T11:55:38.845Z,8.72
2022-11-29T11:58:10.314Z,8.73
2022-11-29T12:01:02.853Z,8.70
2022-11-29T12:03:47.480Z,8.72
2022-11-29T12:07:06.095Z,8.71
2022-11-29T12:09:35.586Z,8.69
2022-11-29T12:12:09.323Z,8.70
2022-11-29T12:15:07.835Z,8.70
2022-11-29T12:17:58.337Z,8.72
2022-11-29T12:20:32.414Z,8.72
2022-11-29T12:23:15.780Z,8.72
2022-11-29T12:25:53.347Z,8.73
2022-11-29T12:28:21.950Z,8.70
2022-11-29T12:30:58.890Z,8.69
2022-11-29T12:33:51.808Z,8.68
2022-11-29T12:36:52.090Z,8.67
2022-11-29T12:39:34.844Z,8.64
2022-11-29T12:42:15.558Z,8.59
2022-11-29T12:45:19.416Z,8.58
2022-11-29T12:48:13.138Z,8.56
2022-11-29T12:50:59.935Z,8.56
2022-11-29T12:53:27.904Z,8.56
2022-11-29T12:56:12.169Z,8.58
2022-11-29T12:58:48.790Z,8.57
2022-11-29T13:01:42.782Z,8.59
2022-11-29T13:04:24.973Z,8.59
2022-11-29T13:06:57.397Z,8.59
2022-11-29T13:09:45.489Z,8.57
2022-11-29T13:12:22.636Z,8.57
2022-11-29T13:14:53.077Z,8.58
2022-11-29T13:17:53.763Z,8.55
2022-11-29T13:20:21.506Z,8.53
2022-11-29T13:23:46.081Z,8.52
2022-11-29T13:26:15.926Z,8.51
2022-11-29T13:28:44.125Z,8.50
2022-11-29T13:31:19.977Z,8.47
2022-11-29T13:33:59.899Z,8.45
2022-11-29T13:36:31.035Z,8.43
2022-11-29T13:39:37.177Z,8.44
2022-11-29T13:42:09.205Z,8.42
2022-11-29T13:45:18.064Z,8.39
2022-11-29T13:47:50.705Z,8.38
2022-11-29T13:50:44.774Z,8.37
2022-11-29T13:53:46.887Z,8.35
2022-11-29T13:56:47.658Z,8.36
2022-11-29T13:59:28.892Z,8.35
2022-11-29T14:01:56.840Z,8.29
2022-11-29T14:04:25.948Z,8.32
2022-11-29T14:07:11.126Z,8.32
2022-11-29T14:09:59.155Z,8.30
2022-11-29T14:12:43.112Z,8.25
2022-11-29T14:15:32.445Z,8.25
2022-11-29T14:18:04.662Z,8.21
2022-11-29T14:20:33.710Z,8.18
2022-11-29T14:23:07.625Z,8.18
2022-11-29T14:25:54.447Z,8.20
2022-11-29T14:28:22.101Z,8.16
2022-11-29T14:30:58.213Z,8.10
2022-11-29T14:33:44.803Z,8.10
2022-11-29T14:36:39.223Z,8.10
2022-11-29T14:39:14.225Z,8.09
2022-11-29T14:41:54.697Z,8.06
2022-11-29T14:44:32.274Z,8.05
2022-11-29T14:47:21.548Z,8.02
2022-11-29T14:49:49.374Z,7.99
2022-11-29T14:52:16.952Z,8.00
2022-11-29T14:54:58.954Z,8.01
2022-11-29T14:57:49.138Z,7.97
2022-11-29T15:00:27.300Z,7.93
2022-11-29T15:02:59.115Z,7.94
2022-11-29T15:05:46.386Z,7.93
2022-11-29T15:08:34.806Z,7.88
2022-11-29T15:11:34.176Z,7.88
2022-11-29T15:14:27.965Z,7.87
2022-11-29T15:17:20.243Z,7.85
2022-11-29T15:20:13.955Z,7.84
2022-11-29T15:22:53.518Z,7.85
2022-11-29T15:25:23.390Z,7.83
2022-11-29T15:27:56.001Z,7.83
2022-11-29T15:30:29.819Z,7.82
2022-11-29T15:32:58.348Z,7.81
2022-11-29T15:35:26.125Z,7.81
2022-11-29T15:37:53.979Z,7.81
2022-11-29T15:40:40.153Z,7.79
2022-11-29T15:43:18.341Z,7.79
2022-11-29T15:45:56.686Z,7.78
2022-11-29T15:48:26.269Z,7.79
2022-11-29T15:51:06.955Z,7.79
2022-11-29T15:54:12.302Z,7.80
2022-11-29T15:56:47.126Z,7.79
2022-11-29T15:59:33.059Z,7.78
2022-11-29T16:02:06.261Z,7.77
2022-11-29T16:04:34.044Z,7.76
2022-11-29T16:07:02.022Z,7.75
2022-11-29T16:09:37.239Z,7.74
2022-11-29T16:12:05.336Z,7.69
2022-11-29T16:14:33.222Z,7.64
2022-11-29T16:17:02.015Z,7.61
2022-11-29T16:19:29.856Z,7.58
2022-11-29T16:22:03.669Z,7.57
2022-11-29T16:24:32.801Z,7.58
2022-11-29T16:27:01.191Z,7.58
2022-11-29T16:29:36.596Z,7.60
2022-11-29T16:32:33.744Z,7.53
2022-11-29T16:35:12.502Z,7.52
2022-11-29T16:37:41.873Z,7.52
2022-11-29T16:40:30.488Z,7.52
2022-11-29T16:43:04.288Z,7.58
2022-11-29T16:45:36.956Z,7.62
2022-11-29T16:48:15.528Z,7.62
2022-11-29T16:50:43.348Z,7.61
2022-11-29T16:53:44.156Z,7.60
2022-11-29T16:56:16.529Z,7.59
2022-11-29T16:59:25.537Z,7.58
2022-11-29T17:01:34.051Z,7.60
2022-11-29T17:04:01.982Z,7.61
2022-11-29T17:06:30.154Z,7.60
2022-11-29T17:08:59.143Z,7.64
2022-11-29T17:11:27.178Z,7.66
2022-11-29T17:13:54.988Z,7.66
2022-11-29T17:16:24.241Z,7.61
2022-11-29T17:18:53.832Z,7.64
2022-11-29T17:21:23.165Z,7.64
2022-11-29T17:23:51.039Z,7.60
2022-11-29T17:26:18.967Z,7.55
2022-11-29T17:28:47.772Z,7.54
2022-11-29T17:31:17.266Z,7.51
2022-11-29T17:33:45.136Z,7.60
2022-11-29T17:36:16.373Z,7.65
2022-11-29T17:38:44.963Z,7.64
2022-11-29T17:41:17.686Z,7.60
2022-11-29T17:43:45.802Z,7.59
2022-11-29T17:46:15.466Z,7.60
2022-11-29T17:48:44.005Z,7.58
2022-11-29T17:51:29.224Z,7.58
2022-11-29T17:54:02.106Z,7.60
2022-11-29T17:56:31.061Z,7.59
2022-11-29T17:58:59.934Z,7.59
2022-11-29T18:01:29.427Z,7.57
2022-11-29T18:03:59.450Z,7.58
2022-11-29T18:06:31.983Z,7.57
2022-11-29T18:09:00.421Z,7.54
2022-11-29T18:11:42.959Z,7.50
2022-11-29T18:14:13.843Z,7.48
2022-11-29T18:16:41.668Z,7.43
2022-11-29T18:19:11.950Z,7.43
2022-11-29T18:21:39.759Z,7.48
2022-11-29T18:24:07.832Z,7.49
2022-11-29T18:26:36.486Z,7.50
2022-11-29T18:29:04.790Z,7.50
2022-11-29T18:31:34.433Z,7.51
2022-11-29T18:34:03.231Z,7.53
2022-11-29T18:36:32.698Z,7.52
2022-11-29T18:39:05.122Z,7.54
2022-11-29T18:41:33.334Z,7.53
2022-11-29T18:44:08.479Z,7.55
2022-11-29T18:46:38.391Z,7.56
2022-11-29T18:49:07.819Z,7.57
2022-11-29T18:51:35.652Z,7.56
2022-11-29T18:54:03.731Z,7.56
2022-11-29T18:56:32.384Z,7.54
2022-11-29T18:59:19.245Z,7.54
2022-11-29T19:01:48.566Z,7.51
2022-11-29T19:04:18.607Z,7.50
2022-11-29T19:06:46.290Z,7.49
2022-11-29T19:09:24.986Z,7.48
2022-11-29T19:11:52.936Z,7.48
2022-11-29T19:14:21.022Z,7.47
2022-11-29T19:16:49.567Z,7.46
2022-11-29T19:19:19.871Z,7.47
2022-11-29T19:21:48.145Z,7.44
2022-11-29T19:24:16.792Z,7.44
2022-11-29T19:26:48.113Z,7.43
2022-11-29T19:29:16.294Z,7.44
2022-11-29T19:31:44.225Z,7.46
2022-11-29T19:34:12.043Z,7.45
2022-11-29T19:36:44.647Z,7.44
2022-11-29T19:39:16.862Z,7.44
2022-11-29T19:41:46.322Z,7.42
2022-11-29T19:44:14.269Z,7.41
2022-11-29T19:46:45.188Z,7.41
2022-11-29T19:49:13.220Z,7.40
2022-11-29T19:51:45.692Z,7.41
2022-11-29T19:54:13.579Z,7.41
2022-11-29T19:56:41.532Z,7.41
2022-11-29T19:59:09.433Z,7.40
2022-11-29T20:01:41.456Z,7.37
2022-11-29T20:04:10.423Z,7.40
2022-11-29T20:06:38.304Z,7.40
2022-11-29T20:09:06.218Z,7.39
2022-11-29T20:11:34.053Z,7.40
2022-11-29T20:14:02.576Z,7.41
2022-11-29T20:16:30.809Z,7.40
2022-11-29T20:18:59.012Z,7.37
2022-11-29T20:21:40.270Z,7.36
2022-11-29T20:24:08.923Z,7.34
2022-11-29T20:26:41.415Z,7.31
2022-11-29T20:29:09.496Z,7.30
2022-11-29T20:31:38.282Z,7.26
2022-11-29T20:34:06.775Z,7.28
2022-11-29T20:36:55.161Z,7.29
2022-11-29T20:39:35.104Z,7.32
2022-11-29T20:42:30.630Z,7.32
2022-11-29T20:45:08.887Z,7.32
2022-11-29T20:47:55.382Z,7.33
2022-11-29T20:50:27.632Z,7.31
2022-11-29T20:53:07.661Z,7.30
2022-11-29T20:55:42.522Z,7.29
2022-11-29T20:58:14.177Z,7.28
2022-11-29T21:00:41.958Z,7.27
2022-11-29T21:03:09.709Z,7.27
2022-11-29T21:05:39.046Z,7.29
2022-11-29T21:08:06.805Z,7.28
2022-11-29T21:10:34.788Z,7.29
2022-11-29T21:13:02.873Z,7.29
2022-11-29T21:15:30.997Z,7.28
2022-11-29T21:17:59.172Z,7.31
2022-11-29T21:20:27.708Z,7.32
2022-11-29T21:23:08.321Z,7.31
2022-11-29T21:25:53.556Z,7.31
2022-11-29T21:28:21.339Z,7.33
2022-11-29T21:30:49.472Z,7.34
2022-11-29T21:33:17.513Z,7.35
2022-11-29T21:35:45.223Z,7.33
2022-11-29T21:38:16.311Z,7.36
2022-11-29T21:40:44.126Z,7.35
2022-11-29T21:43:12.053Z,7.35
2022-11-29T21:45:39.782Z,7.32
2022-11-29T21:48:30.285Z,7.30
2022-11-29T21:50:58.092Z,7.27
2022-11-29T21:53:25.825Z,7.23
2022-11-29T21:56:00.104Z,7.22
2022-11-29T21:58:28.270Z,7.22
2022-11-29T22:00:56.106Z,7.23
2022-11-29T22:03:23.883Z,7.25
2022-11-29T22:05:56.374Z,7.26
2022-11-29T22:08:24.104Z,7.27
2022-11-29T22:11:01.327Z,7.27
2022-11-29T22:13:29.001Z,7.27
2022-11-29T22:16:04.136Z,7.26
2022-11-29T22:18:31.918Z,7.25
2022-11-29T22:21:04.503Z,7.23
2022-11-29T22:23:32.266Z,7.23
2022-11-29T22:26:04.805Z,7.24
2022-11-29T22:28:32.651Z,7.23
2022-11-29T22:31:05.395Z,7.17
2022-11-29T22:33:33.587Z,7.12
2022-11-29T22:36:08.453Z,7.11
2022-11-29T22:38:36.436Z,7.10
2022-11-29T22:41:05.927Z,7.13
2022-11-29T22:43:33.893Z,7.13
2022-11-29T22:46:08.273Z,7.13
2022-11-29T22:48:38.885Z,7.10
2022-11-29T22:51:11.719Z,7.10
2022-11-29T22:53:40.203Z,7.09
2022-11-29T22:56:09.060Z,7.08
2022-11-29T22:58:41.310Z,7.06
2022-11-29T23:01:13.591Z,7.08
2022-11-29T23:03:43.188Z,7.08
2022-11-29T23:06:15.337Z,7.07
2022-11-29T23:08:43.281Z,7.06
2022-11-29T23:11:13.461Z,7.06
2022-11-29T23:13:42.082Z,7.05
2022-11-29T23:16:17.234Z,7.05
2022-11-29T23:18:46.683Z,7.05
2022-11-29T23:21:17.991Z,7.03
2022-11-29T23:23:45.885Z,7.03
2022-11-29T23:26:22.592Z,7.02
2022-11-29T23:28:50.573Z,7.01
2022-11-29T23:31:18.592Z,7.01
2022-11-29T23:33:46.456Z,7.02
2022-11-29T23:36:14.453Z,7.01
2022-11-29T23:38:47.113Z,7.01
2022-11-29T23:41:14.907Z,7.01
2022-11-29T23:43:42.779Z,6.99
2022-11-29T23:46:14.890Z,6.99
2022-11-29T23:48:42.983Z,6.98
2022-11-29T23:51:10.813Z,7.00
2022-11-29T23:53:38.679Z,6.97
2022-11-29T23:56:08.411Z,6.95
2022-11-29T23:58:36.652Z,6.96
